Wellington, Florida
Current Conditions -  °F | °C
As of 7:53 AM on Monday 22 Dec 2014 (Local Time) from KPBI Reporting Station
Broken Clouds Broken Clouds  
Wind Chill: 71°   Ceiling: 21000
Heat Index: 71°   Visibility: 10mi
Dew Point: 66°   Wind: 5mph
Humidity: 84%   Direction: 170°S
Pressure: 30.02"   Gusts: NA
Location:  26.64°N, 80.27°W
Report Text: KPBI 221253Z 17004KT 10SM FEW025 SCT140 BKN210 22/19 A3002 RMK AO2 SLP164 T02170189
Loading
Personal Weather Stations






























Interactive Weather Map New forecast layout! Learn more

10-Day Weather Forecast

Advertisements
Track Severe Weather on mobile